createdAt,value
2019-02-05T00:01:04.013Z,96.90
2019-02-05T00:03:30.397Z,96.90
2019-02-05T00:05:56.744Z,96.80
2019-02-05T00:08:23.234Z,96.70
2019-02-05T00:10:49.603Z,96.50
2019-02-05T00:13:15.880Z,96.50
2019-02-05T00:15:42.256Z,96.60
2019-02-05T00:18:08.639Z,96.40
2019-02-05T00:20:34.987Z,96.30
2019-02-05T00:23:01.483Z,96.30
2019-02-05T00:25:27.965Z,96.10
2019-02-05T00:27:54.413Z,95.90
2019-02-05T00:30:20.835Z,95.60
2019-02-05T00:32:47.096Z,95.50
2019-02-05T00:35:13.654Z,95.30
2019-02-05T00:37:40.183Z,95.30
2019-02-05T00:40:08.720Z,95.10
2019-02-05T00:42:35.072Z,95.30
2019-02-05T00:45:02.272Z,95.20
2019-02-05T00:47:28.521Z,95.10
2019-02-05T00:49:55.095Z,95.00
2019-02-05T00:52:21.340Z,94.80
2019-02-05T00:54:47.646Z,94.80
2019-02-05T00:57:13.897Z,94.70
2019-02-05T00:59:40.248Z,94.70
2019-02-05T01:02:07.036Z,94.60
2019-02-05T01:04:33.294Z,94.50
2019-02-05T01:06:59.535Z,94.40
2019-02-05T01:09:26.219Z,94.50
2019-02-05T01:11:52.480Z,94.50
2019-02-05T01:14:18.874Z,94.30
2019-02-05T01:16:45.239Z,94.10
2019-02-05T01:19:11.616Z,94.10
2019-02-05T01:21:38.005Z,94.20
2019-02-05T01:24:04.373Z,94.20
2019-02-05T01:26:31.272Z,94.20
2019-02-05T01:28:58.075Z,94.20
2019-02-05T01:31:24.329Z,94.10
2019-02-05T01:33:50.695Z,94.10
2019-02-05T01:36:17.158Z,94.00
2019-02-05T01:38:43.428Z,93.70
2019-02-05T01:41:09.699Z,93.80
2019-02-05T01:43:36.181Z,93.60
2019-02-05T01:46:02.647Z,93.60
2019-02-05T01:48:28.904Z,93.70
2019-02-05T01:50:55.294Z,93.50
2019-02-05T01:53:21.671Z,93.20
2019-02-05T01:55:48.024Z,93.30
2019-02-05T01:58:14.280Z,93.20
2019-02-05T02:00:40.880Z,92.90
2019-02-05T02:03:07.367Z,92.90
2019-02-05T02:05:33.820Z,92.60
2019-02-05T02:08:00.587Z,92.60
2019-02-05T02:10:29.675Z,92.90
2019-02-05T02:12:56.623Z,92.70
2019-02-05T02:15:23.065Z,92.50
2019-02-05T02:17:49.496Z,92.50
2019-02-05T02:20:18.106Z,92.40
2019-02-05T02:23:04.459Z,92.50
2019-02-05T02:25:30.723Z,92.60
2019-02-05T02:27:57.285Z,92.70
2019-02-05T02:30:32.496Z,92.60
2019-02-05T02:32:58.864Z,92.70
2019-02-05T02:35:25.229Z,92.80
2019-02-05T02:37:51.895Z,92.60
2019-02-05T02:40:18.351Z,92.20
2019-02-05T02:42:44.854Z,92.40
2019-02-05T02:45:12.586Z,92.70
2019-02-05T02:47:38.974Z,92.20
2019-02-05T02:50:08.971Z,92.30
2019-02-05T02:52:35.562Z,92.50
2019-02-05T02:55:03.429Z,92.90
2019-02-05T02:57:29.803Z,93.10
2019-02-05T02:59:56.283Z,93.20
2019-02-05T03:02:22.644Z,93.00
2019-02-05T03:04:49.123Z,93.40
2019-02-05T03:07:15.602Z,93.60
2019-02-05T03:09:42.108Z,93.60
2019-02-05T03:12:08.560Z,93.70
2019-02-05T03:14:34.814Z,94.90
2019-02-05T03:17:01.592Z,94.80
2019-02-05T03:19:27.874Z,95.10
2019-02-05T03:21:54.233Z,95.10
2019-02-05T03:24:20.524Z,95.40
2019-02-05T03:26:46.928Z,95.60
2019-02-05T03:29:13.213Z,95.70
2019-02-05T03:31:39.543Z,95.60
2019-02-05T03:34:05.946Z,95.40
2019-02-05T03:36:32.324Z,95.60
2019-02-05T03:38:58.729Z,95.70
2019-02-05T03:41:25.380Z,95.90
2019-02-05T03:43:51.773Z,96.10
2019-02-05T03:46:19.024Z,96.60
2019-02-05T03:48:46.534Z,96.80
2019-02-05T03:51:19.697Z,96.80
2019-02-05T03:54:05.178Z,97.30
2019-02-05T03:56:44.576Z,97.80
2019-02-05T03:59:31.687Z,97.60
2019-02-05T04:02:01.785Z,97.90
2019-02-05T04:04:41.240Z,98.40
2019-02-05T04:07:14.356Z,98.50
2019-02-05T04:10:17.501Z,98.30
2019-02-05T04:13:06.176Z,98.10
2019-02-05T04:15:54.435Z,98.30
2019-02-05T04:18:42.311Z,98.10
2019-02-05T04:21:27.215Z,98.10
2019-02-05T04:24:27.680Z,98.10
2019-02-05T04:27:19.154Z,98.00
2019-02-05T04:29:52.437Z,98.10
2019-02-05T04:32:28.072Z,98.00
2019-02-05T04:35:17.878Z,98.10
2019-02-05T04:38:07.728Z,97.70
2019-02-05T04:40:37.820Z,97.80
2019-02-05T04:43:10.941Z,97.80
2019-02-05T04:46:02.636Z,97.90
2019-02-05T04:48:49.355Z,97.90
2019-02-05T04:51:22.400Z,98.10
2019-02-05T04:54:09.011Z,97.80
2019-02-05T04:56:48.189Z,97.80
2019-02-05T04:59:21.045Z,97.60
2019-02-05T05:01:51.125Z,97.70
2019-02-05T05:04:39.863Z,97.80
2019-02-05T05:07:22.184Z,97.80
2019-02-05T05:09:48.369Z,97.70
2019-02-05T05:12:14.837Z,97.60
2019-02-05T05:14:41.385Z,97.60
2019-02-05T05:17:07.797Z,97.70
2019-02-05T05:19:34.294Z,97.70
2019-02-05T05:22:01.676Z,97.70
2019-02-05T05:24:28.260Z,97.60
2019-02-05T05:26:54.553Z,97.60
2019-02-05T05:29:21.019Z,97.60
2019-02-05T05:31:50.025Z,97.50
2019-02-05T05:34:16.709Z,97.50
2019-02-05T05:36:48.736Z,97.40
2019-02-05T05:39:15.457Z,97.40
2019-02-05T05:41:41.967Z,97.40
2019-02-05T05:44:09.557Z,97.30
2019-02-05T05:46:36.113Z,97.30
2019-02-05T05:49:02.604Z,97.30
2019-02-05T05:51:28.876Z,97.30
2019-02-05T05:53:56.934Z,97.20
2019-02-05T05:56:23.320Z,97.10
2019-02-05T05:58:49.587Z,97.00
2019-02-05T06:01:15.872Z,96.90
2019-02-05T06:03:42.111Z,96.30
2019-02-05T06:06:08.738Z,96.50
2019-02-05T06:08:35.191Z,96.70
2019-02-05T06:11:01.562Z,96.40
2019-02-05T06:13:28.005Z,96.60
2019-02-05T06:15:54.876Z,96.80
2019-02-05T06:18:21.403Z,96.90
2019-02-05T06:20:47.881Z,96.90
2019-02-05T06:23:14.253Z,97.00
2019-02-05T06:25:40.821Z,97.00
2019-02-05T06:28:07.096Z,97.00
2019-02-05T06:30:33.564Z,97.10
2019-02-05T06:33:00.066Z,97.10
2019-02-05T06:35:26.562Z,97.10
2019-02-05T06:37:53.466Z,97.20
2019-02-05T06:40:20.592Z,97.00
2019-02-05T06:42:47.284Z,97.00
2019-02-05T06:45:14.654Z,97.00
2019-02-05T06:47:41.140Z,96.90
2019-02-05T06:50:10.266Z,96.80
2019-02-05T06:52:36.810Z,96.80
2019-02-05T06:55:05.785Z,96.90
2019-02-05T06:57:32.272Z,96.80
2019-02-05T06:59:58.639Z,96.90
2019-02-05T07:02:25.135Z,96.90
2019-02-05T07:04:51.561Z,96.90
2019-02-05T07:07:17.938Z,96.80
2019-02-05T07:09:44.451Z,96.80
2019-02-05T07:12:10.890Z,96.80
2019-02-05T07:14:37.357Z,96.80
2019-02-05T07:17:03.964Z,96.70
2019-02-05T07:19:30.354Z,96.50
2019-02-05T07:21:56.848Z,96.40
2019-02-05T07:24:23.272Z,96.30
2019-02-05T07:26:49.741Z,96.50
2019-02-05T07:29:16.209Z,96.40
2019-02-05T07:31:42.737Z,96.50
2019-02-05T07:34:09.243Z,96.30
2019-02-05T07:36:35.626Z,96.20
2019-02-05T07:39:05.629Z,96.40
2019-02-05T07:41:32.200Z,96.40
2019-02-05T07:43:58.489Z,96.40
2019-02-05T07:46:24.864Z,96.40
2019-02-05T07:48:51.362Z,96.10
2019-02-05T07:51:17.872Z,96.20
2019-02-05T07:53:44.393Z,96.30
2019-02-05T07:56:12.914Z,96.30
2019-02-05T07:58:39.247Z,96.20
2019-02-05T08:01:05.736Z,96.20
2019-02-05T08:03:32.601Z,96.20
2019-02-05T08:05:59.007Z,96.20
2019-02-05T08:08:25.577Z,96.00
2019-02-05T08:10:52.073Z,95.90
2019-02-05T08:13:18.480Z,96.00
2019-02-05T08:15:45.132Z,96.10
2019-02-05T08:18:11.523Z,96.10
2019-02-05T08:20:37.949Z,96.20
2019-02-05T08:23:04.436Z,95.90
2019-02-05T08:25:30.727Z,95.80
2019-02-05T08:27:57.817Z,95.90
2019-02-05T08:30:28.065Z,96.00
2019-02-05T08:32:54.428Z,96.10
2019-02-05T08:35:20.961Z,95.90
2019-02-05T08:37:47.429Z,95.80
2019-02-05T08:40:19.679Z,96.00
2019-02-05T08:42:46.166Z,96.00
2019-02-05T08:45:15.562Z,96.00
2019-02-05T08:47:42.389Z,95.90
2019-02-05T08:50:12.459Z,95.80
2019-02-05T08:52:38.755Z,95.80
2019-02-05T08:55:08.551Z,95.70
2019-02-05T08:57:35.102Z,95.40
2019-02-05T09:00:01.595Z,95.40
2019-02-05T09:02:28.001Z,95.30
2019-02-05T09:04:54.346Z,95.50
2019-02-05T09:07:21.049Z,95.70
2019-02-05T09:09:47.369Z,95.60
2019-02-05T09:12:13.702Z,95.60
2019-02-05T09:14:40.180Z,95.60
2019-02-05T09:17:06.477Z,95.60
2019-02-05T09:19:32.753Z,95.50
2019-02-05T09:21:59.381Z,95.40
2019-02-05T09:24:25.916Z,95.30
2019-02-05T09:26:52.320Z,95.40
2019-02-05T09:29:18.780Z,95.20
2019-02-05T09:31:45.242Z,95.10
2019-02-05T09:34:11.620Z,94.90
2019-02-05T09:36:37.953Z,95.10
2019-02-05T09:39:05.850Z,95.10
2019-02-05T09:41:32.305Z,95.20
2019-02-05T09:43:58.725Z,95.10
2019-02-05T09:46:25.071Z,95.20
2019-02-05T09:48:51.471Z,94.90
2019-02-05T09:51:18.370Z,94.80
2019-02-05T09:53:44.662Z,94.20
2019-02-05T09:56:11.053Z,94.40
2019-02-05T09:58:37.431Z,94.50
2019-02-05T10:01:06.505Z,94.70
2019-02-05T10:03:33.040Z,94.60
2019-02-05T10:05:59.740Z,95.00
2019-02-05T10:08:26.697Z,94.40
2019-02-05T10:10:53.226Z,94.20
2019-02-05T10:13:20.029Z,94.20
2019-02-05T10:15:46.635Z,94.30
2019-02-05T10:18:13.138Z,94.20
2019-02-05T10:20:39.796Z,93.90
2019-02-05T10:23:06.789Z,94.10
2019-02-05T10:25:33.381Z,94.20
2019-02-05T10:27:59.843Z,93.80
2019-02-05T10:30:32.457Z,93.80
2019-02-05T10:33:00.743Z,93.80
2019-02-05T10:35:27.331Z,94.00
2019-02-05T10:37:53.705Z,93.80
2019-02-05T10:40:21.191Z,93.80
2019-02-05T10:43:21.475Z,93.70
2019-02-05T10:45:27.491Z,93.70
2019-02-05T10:47:53.853Z,93.70
2019-02-05T10:50:20.715Z,93.70
2019-02-05T10:52:49.584Z,93.20
2019-02-05T10:55:17.891Z,93.50
2019-02-05T10:57:45.084Z,93.30
2019-02-05T11:00:15.139Z,93.40
2019-02-05T11:02:41.690Z,93.60
2019-02-05T11:05:11.570Z,93.20
2019-02-05T11:07:37.834Z,93.10
2019-02-05T11:10:08.059Z,93.10
2019-02-05T11:12:34.313Z,93.30
2019-02-05T11:15:00.575Z,93.20
2019-02-05T11:17:26.871Z,93.40
2019-02-05T11:19:53.337Z,93.30
2019-02-05T11:22:19.737Z,93.40
2019-02-05T11:24:46.129Z,93.50
2019-02-05T11:27:12.501Z,93.30
2019-02-05T11:29:39.189Z,93.30
2019-02-05T11:32:05.469Z,93.30
2019-02-05T11:34:31.845Z,93.50
2019-02-05T11:36:58.109Z,93.50
2019-02-05T11:39:24.487Z,93.70
2019-02-05T11:41:50.869Z,93.60
2019-02-05T11:44:17.375Z,93.40
2019-02-05T11:46:43.726Z,93.60
2019-02-05T11:49:10.093Z,93.60
2019-02-05T11:51:36.370Z,93.60
2019-02-05T11:54:03.056Z,93.80
2019-02-05T11:56:29.548Z,93.60
2019-02-05T11:58:55.911Z,93.50
2019-02-05T12:01:22.794Z,93.70
2019-02-05T12:03:49.203Z,93.30
2019-02-05T12:06:15.692Z,93.10
2019-02-05T12:08:42.222Z,93.00
2019-02-05T12:11:08.576Z,93.30
2019-02-05T12:13:34.935Z,93.40
2019-02-05T12:16:01.624Z,93.30
2019-02-05T12:18:27.979Z,93.30
2019-02-05T12:20:54.361Z,93.40
2019-02-05T12:23:20.819Z,93.20
2019-02-05T12:25:47.272Z,93.10
2019-02-05T12:28:13.564Z,92.90
2019-02-05T12:30:44.833Z,92.60
2019-02-05T12:33:09.507Z,92.50
2019-02-05T12:35:36.064Z,92.60
2019-02-05T12:38:04.322Z,93.00
2019-02-05T12:40:30.605Z,93.50
2019-02-05T12:42:57.369Z,93.70
2019-02-05T12:45:26.120Z,93.70
2019-02-05T12:47:52.607Z,93.80
2019-02-05T12:50:21.120Z,93.60
2019-02-05T12:52:47.598Z,93.20
2019-02-05T12:55:16.215Z,93.30
2019-02-05T12:57:42.860Z,93.70
2019-02-05T13:00:32.726Z,93.70
2019-02-05T13:02:59.520Z,93.90
2019-02-05T13:05:26.181Z,93.80
2019-02-05T13:07:52.657Z,93.80
2019-02-05T13:10:31.509Z,93.70
2019-02-05T13:12:58.282Z,93.50
2019-02-05T13:15:24.544Z,93.60
2019-02-05T13:17:51.123Z,93.90
2019-02-05T13:20:21.193Z,93.90
2019-02-05T13:22:47.575Z,93.90
2019-02-05T13:25:19.333Z,93.50
2019-02-05T13:27:45.902Z,93.40
2019-02-05T13:30:18.200Z,93.40
2019-02-05T13:32:44.464Z,93.40
2019-02-05T13:35:11.654Z,93.20
2019-02-05T13:37:38.219Z,93.60
2019-02-05T13:40:08.609Z,93.80
2019-02-05T13:42:35.103Z,93.60
2019-02-05T13:45:01.435Z,93.50
2019-02-05T13:47:27.933Z,92.70
2019-02-05T13:49:54.175Z,92.60
2019-02-05T13:52:20.637Z,92.70
2019-02-05T13:55:07.854Z,92.70
2019-02-05T13:57:34.104Z,93.30
2019-02-05T14:00:00.442Z,93.60
2019-02-05T14:02:26.950Z,93.20
2019-02-05T14:04:53.356Z,92.90
2019-02-05T14:07:19.768Z,93.50
2019-02-05T14:09:46.122Z,93.50
2019-02-05T14:12:12.516Z,93.70
2019-02-05T14:14:38.985Z,93.70
2019-02-05T14:17:05.435Z,93.90
2019-02-05T14:19:31.830Z,94.00
2019-02-05T14:21:58.392Z,94.10
2019-02-05T14:24:24.654Z,94.10
2019-02-05T14:26:50.953Z,94.10
2019-02-05T14:29:17.721Z,94.10
2019-02-05T14:31:43.933Z,93.80
2019-02-05T14:34:10.780Z,94.30
2019-02-05T14:36:37.303Z,93.80
2019-02-05T14:39:06.806Z,93.90
2019-02-05T14:41:33.063Z,94.20
2019-02-05T14:43:59.352Z,94.20
2019-02-05T14:46:25.740Z,93.70
2019-02-05T14:48:52.003Z,92.40
2019-02-05T14:51:18.397Z,92.60
2019-02-05T14:53:45.006Z,93.40
2019-02-05T14:56:11.523Z,93.90
2019-02-05T14:58:37.975Z,94.10
2019-02-05T15:01:04.363Z,94.10
2019-02-05T15:03:30.692Z,94.20
2019-02-05T15:05:57.111Z,94.30
2019-02-05T15:08:23.394Z,94.40
2019-02-05T15:10:49.765Z,94.40
2019-02-05T15:13:16.275Z,94.40
2019-02-05T15:15:42.652Z,94.40
2019-02-05T15:18:09.135Z,94.60
2019-02-05T15:20:40.969Z,94.60
2019-02-05T15:23:07.849Z,94.60
2019-02-05T15:25:34.537Z,94.50
2019-02-05T15:28:00.877Z,94.60
2019-02-05T15:30:30.493Z,94.70
2019-02-05T15:33:01.393Z,94.70
2019-02-05T15:35:28.060Z,94.90
2019-02-05T15:37:54.560Z,94.70
2019-02-05T15:40:21.138Z,94.90
2019-02-05T15:42:47.614Z,94.90
2019-02-05T15:45:14.712Z,94.90
2019-02-05T15:47:41.152Z,95.00
2019-02-05T15:50:10.510Z,95.00
2019-02-05T15:52:37.126Z,95.00
2019-02-05T15:55:06.671Z,94.90
2019-02-05T15:57:33.061Z,94.90
2019-02-05T15:59:59.355Z,94.90
2019-02-05T16:02:25.736Z,94.90
2019-02-05T16:04:52.558Z,94.90
2019-02-05T16:07:18.836Z,95.00
2019-02-05T16:09:45.283Z,95.00
2019-02-05T16:12:11.754Z,95.00
2019-02-05T16:14:38.908Z,95.00
2019-02-05T16:17:05.282Z,95.00
2019-02-05T16:19:31.524Z,95.00
2019-02-05T16:21:57.911Z,95.20
2019-02-05T16:24:24.696Z,95.30
2019-02-05T16:26:51.040Z,95.20
2019-02-05T16:29:17.331Z,95.20
2019-02-05T16:31:43.688Z,95.20
2019-02-05T16:34:10.076Z,95.10
2019-02-05T16:36:36.433Z,95.20
2019-02-05T16:39:06.540Z,95.10
2019-02-05T16:41:32.816Z,95.20
2019-02-05T16:43:59.597Z,95.30
2019-02-05T16:46:25.908Z,95.30
2019-02-05T16:48:52.188Z,95.40
2019-02-05T16:51:18.652Z,95.40
2019-02-05T16:53:45.011Z,95.40
2019-02-05T16:56:11.449Z,95.40
2019-02-05T16:58:37.899Z,95.30
2019-02-05T17:01:04.380Z,95.40
2019-02-05T17:03:31.193Z,95.40
2019-02-05T17:05:57.729Z,95.50
2019-02-05T17:08:24.117Z,95.50
2019-02-05T17:10:50.422Z,95.60
2019-02-05T17:13:16.789Z,95.60
2019-02-05T17:15:43.085Z,95.70
2019-02-05T17:18:09.567Z,95.60
2019-02-05T17:20:36.512Z,95.50
2019-02-05T17:23:03.854Z,95.60
2019-02-05T17:25:30.390Z,95.60
2019-02-05T17:27:58.868Z,95.60
2019-02-05T17:30:27.945Z,95.60
2019-02-05T17:32:54.613Z,95.70
2019-02-05T17:35:21.116Z,95.70
2019-02-05T17:37:47.551Z,95.70
2019-02-05T17:40:19.858Z,95.80
2019-02-05T17:42:46.564Z,95.70
2019-02-05T17:45:18.697Z,95.60
2019-02-05T17:47:45.525Z,95.70
2019-02-05T17:50:12.105Z,95.90
2019-02-05T17:52:38.391Z,96.00
2019-02-05T17:55:08.265Z,96.00
2019-02-05T17:57:35.059Z,95.90
2019-02-05T18:00:10.915Z,95.70
2019-02-05T18:02:37.446Z,95.50
2019-02-05T18:05:07.622Z,95.50
2019-02-05T18:07:34.027Z,95.60
2019-02-05T18:10:00.359Z,95.80
2019-02-05T18:12:27.117Z,95.90
2019-02-05T18:14:53.516Z,96.20
2019-02-05T18:17:19.793Z,96.70
2019-02-05T18:19:46.104Z,96.40
2019-02-05T18:22:12.632Z,96.30
2019-02-05T18:24:38.993Z,96.30
2019-02-05T18:27:05.409Z,96.40
2019-02-05T18:29:31.786Z,96.30
2019-02-05T18:31:58.236Z,96.40
2019-02-05T18:34:24.701Z,96.40
2019-02-05T18:36:51.164Z,96.40
2019-02-05T18:39:17.573Z,96.40
2019-02-05T18:41:44.006Z,96.40
2019-02-05T18:44:10.370Z,96.50
2019-02-05T18:46:36.654Z,96.60
2019-02-05T18:49:04.964Z,96.30
2019-02-05T18:51:31.601Z,96.50
2019-02-05T18:53:58.125Z,96.70
2019-02-05T18:56:24.600Z,96.70
2019-02-05T18:58:51.031Z,96.80
2019-02-05T19:01:17.513Z,96.70
2019-02-05T19:03:43.968Z,96.70
2019-02-05T19:06:10.365Z,96.70
2019-02-05T19:08:36.764Z,96.80
2019-02-05T19:11:03.247Z,96.80
2019-02-05T19:13:29.565Z,96.80
2019-02-05T19:15:55.975Z,96.70
2019-02-05T19:18:22.220Z,96.60
2019-02-05T19:20:48.635Z,96.50
2019-02-05T19:23:14.983Z,96.60
2019-02-05T19:25:46.193Z,96.50
2019-02-05T19:28:14.472Z,96.50
2019-02-05T19:30:42.981Z,96.50
2019-02-05T19:33:09.261Z,96.60
2019-02-05T19:35:35.625Z,96.70
2019-02-05T19:38:02.035Z,96.50
2019-02-05T19:40:28.416Z,96.40
2019-02-05T19:42:54.926Z,96.40
2019-02-05T19:45:26.087Z,96.50
2019-02-05T19:47:52.916Z,96.50
2019-02-05T19:50:20.166Z,96.70
2019-02-05T19:52:46.449Z,96.20
2019-02-05T19:55:12.974Z,96.40
2019-02-05T19:57:39.681Z,96.30
2019-02-05T20:00:12.940Z,96.20
2019-02-05T20:02:39.224Z,96.20
2019-02-05T20:05:07.540Z,96.40
2019-02-05T20:07:36.324Z,96.40
2019-02-05T20:10:02.209Z,96.40
2019-02-05T20:12:28.800Z,96.70
2019-02-05T20:14:55.316Z,96.80
2019-02-05T20:17:21.751Z,96.80
2019-02-05T20:19:48.409Z,96.70
2019-02-05T20:22:14.701Z,96.70
2019-02-05T20:24:41.546Z,96.70
2019-02-05T20:27:08.267Z,96.60
2019-02-05T20:29:34.741Z,96.60
2019-02-05T20:32:01.227Z,96.60
2019-02-05T20:34:27.668Z,96.60
2019-02-05T20:36:54.062Z,96.60
2019-02-05T20:39:20.525Z,96.60
2019-02-05T20:41:46.947Z,96.50
2019-02-05T20:44:13.343Z,96.40
2019-02-05T20:46:39.718Z,96.50
2019-02-05T20:49:06.223Z,96.40
2019-02-05T20:51:32.631Z,96.30
2019-02-05T20:53:58.906Z,96.30
2019-02-05T20:56:25.423Z,96.30
2019-02-05T20:58:51.735Z,96.30
2019-02-05T21:01:18.010Z,96.20
2019-02-05T21:03:44.525Z,96.40
2019-02-05T21:06:11.000Z,96.60
2019-02-05T21:08:37.284Z,96.70
2019-02-05T21:11:04.358Z,96.70
2019-02-05T21:13:30.726Z,96.80
2019-02-05T21:15:57.107Z,96.90
2019-02-05T21:18:23.815Z,96.90
2019-02-05T21:20:50.112Z,96.80
2019-02-05T21:23:16.484Z,96.90
2019-02-05T21:25:42.882Z,96.90
2019-02-05T21:28:09.272Z,96.90
2019-02-05T21:30:35.568Z,97.00
2019-02-05T21:33:01.963Z,97.30
2019-02-05T21:35:28.472Z,97.00
2019-02-05T21:37:55.147Z,96.90
2019-02-05T21:40:25.678Z,97.00
2019-02-05T21:42:52.164Z,97.00
2019-02-05T21:45:25.288Z,97.00
2019-02-05T21:47:51.601Z,97.30
2019-02-05T21:50:21.947Z,97.10
2019-02-05T21:52:48.770Z,97.10
2019-02-05T21:55:19.720Z,97.10
2019-02-05T21:58:07.777Z,97.20
2019-02-05T22:00:35.013Z,97.10
2019-02-05T22:03:01.724Z,97.10
2019-02-05T22:05:29.622Z,97.10
2019-02-05T22:07:56.260Z,97.10
2019-02-05T22:10:23.145Z,97.00
2019-02-05T22:12:49.536Z,97.00
2019-02-05T22:15:17.709Z,97.00
2019-02-05T22:17:44.303Z,97.20
2019-02-05T22:20:15.724Z,96.90
2019-02-05T22:22:42.134Z,97.00
2019-02-05T22:25:21.293Z,97.00
2019-02-05T22:27:47.776Z,97.00
2019-02-05T22:30:20.853Z,96.90
2019-02-05T22:32:47.329Z,97.00
2019-02-05T22:35:13.942Z,97.00
2019-02-05T22:37:40.795Z,97.00
2019-02-05T22:40:09.963Z,97.10
2019-02-05T22:42:36.227Z,97.00
2019-02-05T22:45:05.703Z,97.10
2019-02-05T22:47:32.138Z,97.10
2019-02-05T22:49:58.524Z,97.10
2019-02-05T22:52:25.970Z,97.20
2019-02-05T22:54:52.421Z,97.20
2019-02-05T22:57:18.804Z,97.30
2019-02-05T22:59:45.083Z,97.30
2019-02-05T23:02:11.548Z,97.30
2019-02-05T23:04:50.140Z,97.40
2019-02-05T23:07:09.698Z,97.40
2019-02-05T23:09:45.780Z,97.40
2019-02-05T23:12:15.800Z,97.40
2019-02-05T23:14:45.262Z,97.30
2019-02-05T23:17:11.715Z,97.40
2019-02-05T23:19:38.237Z,97.40
2019-02-05T23:22:04.737Z,97.40
2019-02-05T23:24:31.112Z,97.40
2019-02-05T23:26:57.573Z,97.40
2019-02-05T23:29:23.851Z,97.20
2019-02-05T23:31:50.217Z,97.00
2019-02-05T23:34:16.974Z,96.90
2019-02-05T23:36:43.457Z,96.80
2019-02-05T23:39:10.555Z,96.80
2019-02-05T23:41:36.927Z,96.70
2019-02-05T23:44:03.584Z,96.70
2019-02-05T23:46:29.862Z,96.90
2019-02-05T23:48:56.312Z,96.60
2019-02-05T23:51:22.777Z,96.80
2019-02-05T23:53:49.425Z,96.90
2019-02-05T23:56:25.451Z,96.90
2019-02-05T23:58:44.082Z,96.90
